createdAt,value
2018-08-25T00:01:25.538Z,85.00
2018-08-25T00:03:53.680Z,85.50
2018-08-25T00:06:21.740Z,84.60
2018-08-25T00:08:49.815Z,85.50
2018-08-25T00:11:17.897Z,85.80
2018-08-25T00:13:47.234Z,86.70
2018-08-25T00:16:15.509Z,85.90
2018-08-25T00:18:43.661Z,85.50
2018-08-25T00:21:11.859Z,84.20
2018-08-25T00:23:40.269Z,83.50
2018-08-25T00:26:08.668Z,83.60
2018-08-25T00:28:36.768Z,83.60
2018-08-25T00:31:10.207Z,82.90
2018-08-25T00:33:38.472Z,83.00
2018-08-25T00:36:06.696Z,83.40
2018-08-25T00:38:34.927Z,82.50
2018-08-25T00:41:03.034Z,82.90
2018-08-25T00:43:31.128Z,82.90
2018-08-25T00:45:59.332Z,82.50
2018-08-25T00:48:27.500Z,82.00
2018-08-25T00:50:55.693Z,81.60
2018-08-25T00:53:23.819Z,81.50
2018-08-25T00:55:52.016Z,82.10
2018-08-25T00:58:20.170Z,82.40
2018-08-25T01:00:48.429Z,82.70
2018-08-25T01:03:16.522Z,82.70
2018-08-25T01:05:44.699Z,82.50
2018-08-25T01:08:12.857Z,82.80
2018-08-25T01:10:41.022Z,83.20
2018-08-25T01:13:09.416Z,83.30
2018-08-25T01:15:37.622Z,82.50
2018-08-25T01:18:05.902Z,82.70
2018-08-25T01:20:34.127Z,83.00
2018-08-25T01:23:02.397Z,82.90
2018-08-25T01:25:30.497Z,83.00
2018-08-25T01:27:58.697Z,82.50
2018-08-25T01:30:26.839Z,83.00
2018-08-25T01:32:54.964Z,83.10
2018-08-25T01:35:23.124Z,83.60
2018-08-25T01:37:51.276Z,83.40
2018-08-25T01:40:19.454Z,83.70
2018-08-25T01:42:47.611Z,83.70
2018-08-25T01:45:15.725Z,83.90
2018-08-25T01:47:43.830Z,84.10
2018-08-25T01:50:11.965Z,84.10
2018-08-25T01:52:40.103Z,84.50
2018-08-25T01:55:08.268Z,84.30
2018-08-25T01:57:36.384Z,84.50
2018-08-25T02:00:07.139Z,84.90
2018-08-25T02:02:35.363Z,84.80
2018-08-25T02:05:03.677Z,85.60
2018-08-25T02:07:31.849Z,84.50
2018-08-25T02:10:00.054Z,84.00
2018-08-25T02:12:28.238Z,83.80
2018-08-25T02:14:56.344Z,84.00
2018-08-25T02:17:24.500Z,84.40
2018-08-25T02:19:52.554Z,84.40
2018-08-25T02:22:20.676Z,84.30
2018-08-25T02:24:48.850Z,84.80
2018-08-25T02:27:17.331Z,84.10
2018-08-25T02:29:45.632Z,84.20
2018-08-25T02:32:13.827Z,84.10
2018-08-25T02:34:41.915Z,83.70
2018-08-25T02:37:09.967Z,83.60
2018-08-25T02:39:38.121Z,84.10
2018-08-25T02:42:06.260Z,83.80
2018-08-25T02:44:34.311Z,83.40
2018-08-25T02:47:02.523Z,83.60
2018-08-25T02:49:30.681Z,83.70
2018-08-25T02:51:58.809Z,84.10
2018-08-25T02:54:26.940Z,83.60
2018-08-25T02:56:55.165Z,83.80
2018-08-25T02:59:23.292Z,84.20
2018-08-25T03:01:51.476Z,83.70
2018-08-25T03:04:19.649Z,83.90
2018-08-25T03:06:47.825Z,83.90
2018-08-25T03:09:16.008Z,83.80
2018-08-25T03:11:44.146Z,83.70
2018-08-25T03:14:12.369Z,83.70
2018-08-25T03:16:40.517Z,83.40
2018-08-25T03:19:08.654Z,83.70
2018-08-25T03:21:36.740Z,83.00
2018-08-25T03:24:05.052Z,83.00
2018-08-25T03:26:33.210Z,82.80
2018-08-25T03:29:01.439Z,82.50
2018-08-25T03:31:29.545Z,82.50
2018-08-25T03:33:57.748Z,82.30
2018-08-25T03:36:25.905Z,82.80
2018-08-25T03:38:53.947Z,82.40
2018-08-25T03:41:22.054Z,81.60
2018-08-25T03:43:50.256Z,81.20
2018-08-25T03:46:18.396Z,81.60
2018-08-25T03:48:46.595Z,81.20
2018-08-25T03:52:39.266Z,81.70
2018-08-25T03:55:07.384Z,82.40
2018-08-25T03:57:35.587Z,82.50
2018-08-25T04:00:03.849Z,82.70
2018-08-25T04:02:32.040Z,83.00
2018-08-25T04:05:00.071Z,83.60
2018-08-25T04:08:31.911Z,84.10
2018-08-25T04:11:00.055Z,83.80
2018-08-25T04:13:28.217Z,84.60
2018-08-25T04:15:56.400Z,85.10
2018-08-25T04:18:24.565Z,85.30
2018-08-25T04:20:52.838Z,85.10
2018-08-25T04:23:21.024Z,85.50
2018-08-25T04:25:49.192Z,86.30
2018-08-25T04:28:17.423Z,86.50
2018-08-25T04:30:45.506Z,86.50
2018-08-25T04:33:13.636Z,86.70
2018-08-25T04:35:41.797Z,86.70
2018-08-25T04:38:09.977Z,86.30
2018-08-25T04:40:38.644Z,86.30
2018-08-25T04:43:06.868Z,86.30
2018-08-25T04:45:34.997Z,86.30
2018-08-25T04:48:03.155Z,86.50
2018-08-25T04:50:31.221Z,86.60
2018-08-25T04:52:59.434Z,86.60
2018-08-25T04:55:27.580Z,86.70
2018-08-25T04:57:55.761Z,86.80
2018-08-25T05:00:23.913Z,86.70
2018-08-25T05:02:52.180Z,86.80
2018-08-25T05:05:20.342Z,86.50
2018-08-25T05:07:48.807Z,86.70
2018-08-25T05:10:16.819Z,86.80
2018-08-25T05:12:44.905Z,86.90
2018-08-25T05:15:13.095Z,87.30
2018-08-25T05:17:41.297Z,87.50
2018-08-25T05:20:09.507Z,87.40
2018-08-25T05:22:37.584Z,87.60
2018-08-25T05:25:06.758Z,87.40
2018-08-25T05:27:34.891Z,87.60
2018-08-25T05:30:03.074Z,88.20
2018-08-25T05:32:31.268Z,88.70
2018-08-25T05:34:59.359Z,89.20
2018-08-25T05:37:27.468Z,88.20
2018-08-25T05:39:55.767Z,88.40
2018-08-25T05:42:23.958Z,88.60
2018-08-25T05:44:52.128Z,89.20
2018-08-25T05:47:20.518Z,88.60
2018-08-25T05:49:48.730Z,88.70
2018-08-25T05:52:17.072Z,88.80
2018-08-25T05:54:45.196Z,88.80
2018-08-25T05:57:13.278Z,88.30
2018-08-25T05:59:41.453Z,87.70
2018-08-25T06:02:09.624Z,87.70
2018-08-25T06:04:37.991Z,87.80
2018-08-25T06:07:06.082Z,88.00
2018-08-25T06:09:34.261Z,88.40
2018-08-25T06:12:02.557Z,88.80
2018-08-25T06:14:30.733Z,88.60
2018-08-25T06:16:58.873Z,88.40
2018-08-25T06:19:26.950Z,88.10
2018-08-25T06:21:55.160Z,88.00
2018-08-25T06:24:23.308Z,87.70
2018-08-25T06:26:51.497Z,87.60
2018-08-25T06:29:19.718Z,87.80
2018-08-25T06:31:47.961Z,88.30
2018-08-25T06:34:16.109Z,88.60
2018-08-25T06:36:44.321Z,87.50
2018-08-25T06:39:12.424Z,88.00
2018-08-25T06:41:40.577Z,88.50
2018-08-25T06:44:08.750Z,88.50
2018-08-25T06:46:36.896Z,89.10
2018-08-25T06:49:05.077Z,87.90
2018-08-25T06:51:33.195Z,87.20
2018-08-25T06:54:01.276Z,86.70
2018-08-25T06:56:29.479Z,86.20
2018-08-25T06:58:57.853Z,85.50
2018-08-25T07:01:25.998Z,85.40
2018-08-25T07:03:54.073Z,84.70
2018-08-25T07:06:22.236Z,85.00
2018-08-25T07:08:50.337Z,84.10
2018-08-25T07:11:18.468Z,82.40
2018-08-25T07:13:46.578Z,81.90
2018-08-25T07:16:14.730Z,81.80
2018-08-25T07:18:42.809Z,81.60
2018-08-25T07:21:10.901Z,80.60
2018-08-25T07:23:39.061Z,80.20
2018-08-25T07:26:07.381Z,81.30
2018-08-25T07:28:35.432Z,80.70
2018-08-25T07:31:03.626Z,81.80
2018-08-25T07:33:31.901Z,83.10
2018-08-25T07:36:00.348Z,83.50
2018-08-25T07:38:28.533Z,83.10
2018-08-25T07:40:56.793Z,82.70
2018-08-25T07:43:25.707Z,83.70
2018-08-25T07:45:53.824Z,83.20
2018-08-25T07:48:21.911Z,83.20
2018-08-25T07:50:50.089Z,82.40
2018-08-25T07:53:18.218Z,82.50
2018-08-25T07:55:46.531Z,82.90
2018-08-25T07:58:15.027Z,83.00
2018-08-25T08:00:51.371Z,83.60
2018-08-25T08:03:20.094Z,83.80
2018-08-25T08:05:48.196Z,83.90
2018-08-25T08:08:16.372Z,84.80
2018-08-25T08:10:45.850Z,84.20
2018-08-25T08:13:14.478Z,84.20
2018-08-25T08:15:43.253Z,84.60
2018-08-25T08:18:12.468Z,84.10
2018-08-25T08:20:40.769Z,83.40
2018-08-25T08:23:08.943Z,81.60
2018-08-25T08:25:37.060Z,81.60
2018-08-25T08:28:06.016Z,81.70
2018-08-25T08:30:34.406Z,80.10
2018-08-25T08:33:02.854Z,78.30
2018-08-25T08:35:31.151Z,74.70
2018-08-25T08:37:59.479Z,72.90
2018-08-25T08:40:28.168Z,71.50
2018-08-25T08:42:56.526Z,71.70
2018-08-25T08:45:24.832Z,71.10
2018-08-25T08:47:53.056Z,70.40
2018-08-25T08:50:21.582Z,70.30
2018-08-25T08:52:50.377Z,70.00
2018-08-25T08:55:19.035Z,69.80
2018-08-25T08:57:47.189Z,69.40
2018-08-25T09:00:15.247Z,68.00
2018-08-25T09:02:43.417Z,67.80
2018-08-25T09:05:11.953Z,68.70
2018-08-25T09:07:40.145Z,68.00
2018-08-25T09:10:08.293Z,68.30
2018-08-25T09:12:36.994Z,68.70
2018-08-25T09:15:05.619Z,69.40
2018-08-25T09:17:33.783Z,68.10
2018-08-25T09:20:02.036Z,66.50
2018-08-25T09:22:30.281Z,66.10
2018-08-25T09:24:58.589Z,66.00
2018-08-25T09:27:26.978Z,66.20
2018-08-25T09:29:55.156Z,65.90
2018-08-25T09:32:23.408Z,64.10
2018-08-25T09:34:51.878Z,62.70
2018-08-25T09:37:20.290Z,59.30
2018-08-25T09:39:48.615Z,55.90
2018-08-25T09:42:17.109Z,54.60
2018-08-25T09:44:45.560Z,51.80
2018-08-25T09:47:13.668Z,50.50
2018-08-25T09:49:41.848Z,51.90
2018-08-25T09:52:10.029Z,52.40
2018-08-25T09:54:38.203Z,53.50
2018-08-25T09:57:06.485Z,51.40
2018-08-25T09:59:34.693Z,49.60
2018-08-25T10:02:03.034Z,45.00
2018-08-25T10:04:31.969Z,42.30
2018-08-25T10:07:00.086Z,40.80
2018-08-25T10:09:28.181Z,40.80
2018-08-25T10:11:56.340Z,43.10
2018-08-25T10:14:24.449Z,44.10
2018-08-25T10:16:53.439Z,42.70
2018-08-25T10:19:21.597Z,42.90
2018-08-25T10:21:49.808Z,42.50
2018-08-25T10:24:18.042Z,41.50
2018-08-25T10:26:46.245Z,41.70
2018-08-25T10:29:14.490Z,44.20
2018-08-25T10:31:42.665Z,44.30
2018-08-25T10:34:10.807Z,45.20
2018-08-25T10:36:38.935Z,44.10
2018-08-25T10:39:10.041Z,42.60
2018-08-25T10:41:38.366Z,42.00
2018-08-25T10:44:07.004Z,42.40
2018-08-25T10:46:39.768Z,40.50
2018-08-25T10:49:08.384Z,40.90
2018-08-25T10:51:36.830Z,43.60
2018-08-25T10:54:05.218Z,45.20
2018-08-25T10:56:33.418Z,45.80
2018-08-25T10:59:01.728Z,44.40
2018-08-25T11:01:29.912Z,45.40
2018-08-25T11:03:58.166Z,44.50
2018-08-25T11:06:26.317Z,44.10
2018-08-25T11:08:54.580Z,43.50
2018-08-25T11:11:22.694Z,43.90
2018-08-25T11:13:51.073Z,45.10
2018-08-25T11:16:19.158Z,45.80
2018-08-25T11:18:47.286Z,46.20
2018-08-25T11:21:15.463Z,46.00
2018-08-25T11:23:43.725Z,46.70
2018-08-25T11:26:11.699Z,46.80
2018-08-25T11:28:40.800Z,46.20
2018-08-25T11:31:08.823Z,46.00
2018-08-25T11:33:37.061Z,46.10
2018-08-25T11:36:05.270Z,46.00
2018-08-25T11:38:33.397Z,46.00
2018-08-25T11:41:01.510Z,47.20
2018-08-25T11:43:29.664Z,46.60
2018-08-25T11:45:57.866Z,48.00
2018-08-25T11:48:26.041Z,48.70
2018-08-25T11:50:54.197Z,47.80
2018-08-25T11:53:22.381Z,47.50
2018-08-25T11:55:50.612Z,46.90
2018-08-25T11:58:18.784Z,45.70
2018-08-25T12:00:46.871Z,45.00
2018-08-25T12:03:15.081Z,45.80
2018-08-25T12:05:43.203Z,46.20
2018-08-25T12:08:11.297Z,46.10
2018-08-25T12:10:39.468Z,46.60
2018-08-25T12:13:07.659Z,46.40
2018-08-25T12:15:35.913Z,47.30
2018-08-25T12:18:04.100Z,46.50
2018-08-25T12:20:32.237Z,47.80
2018-08-25T12:23:00.375Z,48.40
2018-08-25T12:25:28.550Z,48.50
2018-08-25T12:30:49.544Z,49.50
2018-08-25T12:33:17.723Z,49.50
2018-08-25T12:35:45.880Z,48.80
2018-08-25T12:38:13.978Z,49.40
2018-08-25T12:40:42.127Z,49.20
2018-08-25T12:43:10.240Z,49.40
2018-08-25T12:45:38.239Z,49.60
2018-08-25T12:48:06.310Z,50.20
2018-08-25T12:50:34.478Z,50.80
2018-08-25T12:53:02.716Z,50.10
2018-08-25T12:55:30.832Z,50.10
2018-08-25T12:57:59.017Z,50.70
2018-08-25T13:00:27.255Z,50.70
2018-08-25T13:02:55.360Z,51.40
2018-08-25T13:05:23.501Z,51.30
2018-08-25T13:07:51.746Z,51.30
2018-08-25T13:10:19.950Z,51.50
2018-08-25T13:12:48.153Z,51.20
2018-08-25T13:15:16.253Z,51.10
2018-08-25T13:17:46.743Z,51.20
2018-08-25T13:20:14.868Z,51.00
2018-08-25T13:22:43.753Z,50.90
2018-08-25T13:25:12.843Z,51.70
2018-08-25T13:27:40.988Z,52.10
2018-08-25T13:30:09.220Z,52.60
2018-08-25T13:32:37.698Z,53.10
2018-08-25T13:35:07.312Z,53.30
2018-08-25T13:37:35.558Z,53.70
2018-08-25T13:40:03.742Z,53.40
2018-08-25T13:42:31.889Z,54.10
2018-08-25T13:45:00.031Z,53.40
2018-08-25T13:47:28.274Z,54.20
2018-08-25T13:49:56.588Z,54.60
2018-08-25T13:52:24.774Z,55.00
2018-08-25T13:54:52.944Z,55.30
2018-08-25T13:57:21.584Z,56.30
2018-08-25T13:59:49.807Z,57.10
2018-08-25T14:02:18.461Z,57.00
2018-08-25T14:04:47.451Z,57.20
2018-08-25T14:07:16.429Z,57.10
2018-08-25T14:09:47.119Z,57.60
2018-08-25T14:12:15.783Z,58.10
2018-08-25T14:14:43.981Z,57.90
2018-08-25T14:17:12.153Z,58.50
2018-08-25T14:19:40.412Z,58.70
2018-08-25T14:22:08.664Z,58.70
2018-08-25T14:24:37.583Z,58.70
2018-08-25T14:27:08.106Z,59.00
2018-08-25T14:29:37.316Z,59.00
2018-08-25T14:32:05.521Z,58.70
2018-08-25T14:34:33.625Z,58.50
2018-08-25T14:37:01.791Z,58.10
2018-08-25T14:39:29.946Z,57.60
2018-08-25T14:41:58.361Z,57.10
2018-08-25T14:44:27.397Z,57.50
2018-08-25T14:46:56.144Z,58.10
2018-08-25T14:49:24.391Z,58.60
2018-08-25T14:51:52.495Z,59.20
2018-08-25T14:54:20.861Z,59.20
2018-08-25T14:56:50.070Z,59.10
2018-08-25T14:59:18.265Z,59.00
2018-08-25T15:01:46.833Z,58.90
2018-08-25T15:04:15.396Z,59.20
2018-08-25T15:06:43.495Z,59.10
2018-08-25T15:09:13.268Z,59.60
2018-08-25T15:11:41.517Z,59.50
2018-08-25T15:14:09.712Z,59.50
2018-08-25T15:16:37.892Z,58.90
2018-08-25T15:19:06.264Z,59.70
2018-08-25T15:21:34.595Z,60.50
2018-08-25T15:24:03.145Z,60.20
2018-08-25T15:26:31.240Z,60.00
2018-08-25T15:28:59.733Z,59.80
2018-08-25T15:31:28.967Z,59.70
2018-08-25T15:33:57.805Z,59.70
2018-08-25T15:36:27.112Z,60.30
2018-08-25T15:38:55.465Z,60.40
2018-08-25T15:41:23.806Z,59.60
2018-08-25T15:43:51.933Z,59.80
2018-08-25T15:46:20.208Z,60.20
2018-08-25T15:48:48.460Z,60.60
2018-08-25T15:51:16.840Z,61.00
2018-08-25T15:53:45.042Z,61.00
2018-08-25T15:56:14.268Z,61.20
2018-08-25T15:58:42.475Z,61.90
2018-08-25T16:01:10.683Z,61.90
2018-08-25T16:03:38.783Z,62.10
2018-08-25T16:06:07.082Z,62.70
2018-08-25T16:08:35.395Z,63.00
2018-08-25T16:11:04.650Z,63.00
2018-08-25T16:13:32.877Z,63.10
2018-08-25T16:16:01.078Z,63.30
2018-08-25T16:18:29.391Z,63.60
2018-08-25T16:20:58.146Z,63.60
2018-08-25T16:23:26.344Z,63.80
2018-08-25T16:25:55.821Z,64.10
2018-08-25T16:28:24.192Z,63.70
2018-08-25T16:30:53.520Z,63.50
2018-08-25T16:33:22.670Z,63.40
2018-08-25T16:35:50.832Z,63.10
2018-08-25T16:38:19.073Z,62.70
2018-08-25T16:40:47.840Z,62.90
2018-08-25T16:43:16.016Z,62.80
2018-08-25T16:46:05.844Z,62.80
2018-08-25T16:48:34.072Z,63.20
2018-08-25T16:51:02.285Z,62.80
2018-08-25T16:53:31.639Z,63.20
2018-08-25T16:56:04.341Z,63.20
2018-08-25T16:58:32.425Z,63.20
2018-08-25T17:01:00.631Z,63.20
2018-08-25T17:03:28.939Z,63.50
2018-08-25T17:05:57.163Z,63.20
2018-08-25T17:08:25.368Z,63.70
2018-08-25T17:10:53.495Z,63.70
2018-08-25T17:13:21.858Z,63.70
2018-08-25T17:15:50.118Z,64.20
2018-08-25T17:18:18.217Z,64.40
2018-08-25T17:20:46.370Z,64.30
2018-08-25T17:23:14.427Z,64.70
2018-08-25T17:25:42.624Z,65.00
2018-08-25T17:28:11.357Z,65.30
2018-08-25T17:30:39.794Z,65.20
2018-08-25T17:33:08.109Z,65.50
2018-08-25T17:35:36.267Z,65.70
2018-08-25T17:38:04.857Z,65.90
2018-08-25T17:40:33.106Z,65.90
2018-08-25T17:43:01.303Z,66.30
2018-08-25T17:45:29.535Z,66.40
2018-08-25T17:47:57.685Z,66.50
2018-08-25T17:50:25.887Z,66.60
2018-08-25T17:52:54.012Z,66.90
2018-08-25T17:55:22.108Z,66.80
2018-08-25T17:57:50.268Z,67.20
2018-08-25T18:00:18.925Z,67.20
2018-08-25T18:02:47.205Z,67.10
2018-08-25T18:05:15.420Z,67.30
2018-08-25T18:07:43.648Z,67.60
2018-08-25T18:10:11.922Z,67.60
2018-08-25T18:12:40.137Z,67.80
2018-08-25T18:15:08.505Z,67.90
2018-08-25T18:17:36.754Z,68.00
2018-08-25T18:20:04.831Z,68.00
2018-08-25T18:22:33.005Z,68.10
2018-08-25T18:25:01.301Z,68.00
2018-08-25T18:27:29.445Z,68.10
2018-08-25T18:29:57.638Z,66.80
2018-08-25T18:32:25.788Z,67.20
2018-08-25T18:34:53.851Z,67.50
2018-08-25T18:37:21.986Z,68.30
2018-08-25T18:39:50.140Z,69.00
2018-08-25T18:42:18.381Z,69.30
2018-08-25T18:44:46.517Z,69.80
2018-08-25T18:47:14.734Z,70.10
2018-08-25T18:49:43.098Z,70.20
2018-08-25T18:52:11.181Z,70.40
2018-08-25T18:54:39.396Z,70.70
2018-08-25T18:57:07.516Z,70.20
2018-08-25T18:59:35.610Z,70.50
2018-08-25T19:02:03.979Z,70.20
2018-08-25T19:04:32.256Z,69.70
2018-08-25T19:07:00.337Z,69.80
2018-08-25T19:09:28.512Z,69.30
2018-08-25T19:11:56.704Z,69.20
2018-08-25T19:14:24.881Z,69.00
2018-08-25T19:16:53.037Z,68.60
2018-08-25T19:19:21.232Z,68.60
2018-08-25T19:21:49.415Z,68.50
2018-08-25T19:24:17.601Z,68.60
2018-08-25T19:26:45.796Z,68.50
2018-08-25T19:29:14.008Z,68.70
2018-08-25T19:31:42.285Z,68.90
2018-08-25T19:34:10.452Z,69.00
2018-08-25T19:36:38.622Z,69.00
2018-08-25T19:39:08.347Z,69.10
2018-08-25T19:41:36.892Z,69.10
2018-08-25T19:44:04.983Z,69.50
2018-08-25T19:46:33.171Z,69.60
2018-08-25T19:49:01.470Z,69.50
2018-08-25T19:51:29.690Z,69.60
2018-08-25T19:53:57.834Z,69.80
2018-08-25T19:56:26.100Z,69.90
2018-08-25T19:58:54.309Z,70.10
2018-08-25T20:01:23.006Z,70.20
2018-08-25T20:03:51.370Z,70.90
2018-08-25T20:06:19.397Z,70.30
2018-08-25T20:08:47.638Z,70.10
2018-08-25T20:11:15.746Z,70.10
2018-08-25T20:13:44.114Z,70.60
2018-08-25T20:16:13.565Z,70.00
2018-08-25T20:18:41.764Z,70.00
2018-08-25T20:21:09.859Z,70.10
2018-08-25T20:23:37.920Z,69.30
2018-08-25T20:26:06.108Z,68.90
2018-08-25T20:28:34.241Z,68.80
2018-08-25T20:31:02.346Z,68.20
2018-08-25T20:33:30.608Z,67.80
2018-08-25T20:35:58.771Z,67.70
2018-08-25T20:38:26.941Z,68.10
2018-08-25T20:40:57.536Z,67.50
2018-08-25T20:43:25.811Z,67.50
2018-08-25T20:45:54.159Z,68.10
2018-08-25T20:48:22.326Z,68.20
2018-08-25T20:50:50.452Z,68.60
2018-08-25T20:53:18.672Z,68.80
2018-08-25T20:55:46.792Z,69.00
2018-08-25T20:58:15.067Z,69.10
2018-08-25T21:00:43.277Z,69.50
2018-08-25T21:03:11.469Z,69.50
2018-08-25T21:05:39.567Z,69.50
2018-08-25T21:08:07.745Z,69.70
2018-08-25T21:10:35.785Z,69.80
2018-08-25T21:13:03.876Z,69.60
2018-08-25T21:15:31.927Z,69.80
2018-08-25T21:18:00.056Z,69.40
2018-08-25T21:20:28.232Z,69.40
2018-08-25T21:22:56.534Z,69.30
2018-08-25T21:25:24.712Z,69.20
2018-08-25T21:27:53.982Z,69.40
2018-08-25T21:30:22.928Z,69.40
2018-08-25T21:32:51.157Z,69.10
2018-08-25T21:35:19.326Z,70.00
2018-08-25T21:37:47.616Z,69.70
2018-08-25T21:40:15.792Z,69.60
2018-08-25T21:42:44.013Z,69.50
2018-08-25T21:45:12.110Z,69.20
2018-08-25T21:47:40.304Z,69.40
2018-08-25T21:50:08.493Z,69.60
2018-08-25T21:52:37.639Z,69.50
2018-08-25T21:55:05.764Z,69.60
2018-08-25T21:57:33.869Z,69.60
2018-08-25T22:00:01.962Z,69.60
2018-08-25T22:02:30.021Z,70.10
2018-08-25T22:04:58.172Z,70.10
2018-08-25T22:07:26.292Z,70.40
2018-08-25T22:09:55.510Z,70.40
2018-08-25T22:12:23.744Z,70.90
2018-08-25T22:14:51.847Z,71.40
2018-08-25T22:17:20.013Z,71.10
2018-08-25T22:19:48.093Z,71.50
2018-08-25T22:22:16.275Z,71.70
2018-08-25T22:24:44.478Z,72.00
2018-08-25T22:27:12.713Z,71.90
2018-08-25T22:29:41.165Z,72.60
2018-08-25T22:32:09.301Z,72.60
2018-08-25T22:34:37.492Z,72.80
2018-08-25T22:37:05.801Z,73.50
2018-08-25T22:39:33.940Z,73.80
2018-08-25T22:42:02.129Z,74.20
2018-08-25T22:44:30.304Z,74.60
2018-08-25T22:46:58.421Z,75.20
2018-08-25T22:49:26.620Z,75.00
2018-08-25T22:51:54.756Z,75.20
2018-08-25T22:54:22.820Z,75.80
2018-08-25T22:56:50.907Z,75.90
2018-08-25T22:59:19.126Z,76.40
2018-08-25T23:01:47.305Z,76.70
2018-08-25T23:04:15.498Z,76.80
2018-08-25T23:06:43.621Z,76.80
2018-08-25T23:09:11.788Z,76.90
2018-08-25T23:11:40.265Z,77.10
2018-08-25T23:14:08.467Z,77.30
2018-08-25T23:16:36.619Z,77.60
2018-08-25T23:19:04.904Z,77.80
2018-08-25T23:21:33.109Z,78.00
2018-08-25T23:24:01.256Z,78.20
2018-08-25T23:26:29.481Z,78.10
2018-08-25T23:28:57.692Z,78.50
2018-08-25T23:31:25.768Z,78.80
2018-08-25T23:33:53.911Z,78.50
2018-08-25T23:36:22.004Z,78.60
2018-08-25T23:38:50.151Z,79.10
2018-08-25T23:41:18.207Z,79.00
2018-08-25T23:43:46.357Z,79.60
2018-08-25T23:46:14.501Z,78.80
2018-08-25T23:48:42.639Z,78.40
2018-08-25T23:51:10.782Z,78.40
2018-08-25T23:53:39.057Z,78.60
2018-08-25T23:56:07.188Z,78.60
2018-08-25T23:58:35.267Z,78.90
